createdAt,value
2022-11-19T00:02:01.359Z,99785.41
2022-11-19T00:04:31.153Z,99915.97
2022-11-19T00:06:59.118Z,99865.13
2022-11-19T00:09:27.062Z,99868.66
2022-11-19T00:12:12.434Z,99923.88
2022-11-19T00:14:40.469Z,99877.41
2022-11-19T00:17:08.635Z,99921.34
2022-11-19T00:19:37.815Z,99917.84
2022-11-19T00:22:06.466Z,99808.28
2022-11-19T00:24:35.360Z,99795.03
2022-11-19T00:27:03.817Z,99767.03
2022-11-19T00:29:31.811Z,99837.97
2022-11-19T00:31:59.734Z,99842.44
2022-11-19T00:34:27.846Z,99790.69
2022-11-19T00:36:57.418Z,99912.44
2022-11-19T00:39:25.464Z,99916.97
2022-11-19T00:41:53.536Z,99875.78
2022-11-19T00:44:21.496Z,99889.75
2022-11-19T00:46:49.374Z,99908.16
2022-11-19T00:49:17.651Z,99906.44
2022-11-19T00:51:46.270Z,99908.19
2022-11-19T00:54:15.972Z,99902.03
2022-11-19T00:56:43.879Z,99932.78
2022-11-19T00:59:12.240Z,99889.81
2022-11-19T01:01:40.227Z,99916.13
2022-11-19T01:04:08.200Z,99929.28
2022-11-19T01:06:36.473Z,99956.53
2022-11-19T01:09:05.376Z,99954.75
2022-11-19T01:11:36.328Z,99874.94
2022-11-19T01:14:06.284Z,99959.16
2022-11-19T01:16:36.968Z,99963.56
2022-11-19T01:19:06.640Z,99958.28
2022-11-19T01:21:36.192Z,99810.97
2022-11-19T01:24:06.041Z,99957.38
2022-11-19T01:26:35.414Z,99959.13
2022-11-19T01:29:03.489Z,99932.84
2022-11-19T01:31:31.754Z,99667.25
2022-11-19T01:34:00.262Z,99956.50
2022-11-19T01:36:30.298Z,99961.78
2022-11-19T01:38:59.036Z,99906.50
2022-11-19T01:41:29.812Z,99936.38
2022-11-19T01:44:01.530Z,99929.31
2022-11-19T01:46:31.758Z,99944.25
2022-11-19T01:49:04.211Z,99941.59
2022-11-19T01:51:36.688Z,99961.78
2022-11-19T01:54:10.148Z,99958.31
2022-11-19T01:56:38.427Z,99970.56
2022-11-19T01:59:12.690Z,99974.06
2022-11-19T02:01:41.154Z,99968.81
2022-11-19T02:04:09.304Z,99974.09
2022-11-19T02:06:37.653Z,99989.03
2022-11-19T02:09:06.315Z,99974.03
2022-11-19T02:12:14.824Z,99988.13
2022-11-19T02:15:16.683Z,99997.78
2022-11-19T02:18:04.095Z,99974.06
2022-11-19T02:20:49.890Z,100002.16
2022-11-19T02:23:45.796Z,99982.88
2022-11-19T02:26:41.195Z,100000.44
2022-11-19T02:29:22.108Z,99972.34
2022-11-19T02:31:58.694Z,99975.81
2022-11-19T02:34:31.342Z,99966.22
2022-11-19T02:37:03.644Z,100000.44
2022-11-19T02:39:40.303Z,100006.59
2022-11-19T02:42:15.325Z,99974.97
2022-11-19T02:45:02.444Z,99998.69
2022-11-19T02:47:37.585Z,100007.41
2022-11-19T02:50:10.781Z,99979.34
2022-11-19T02:52:43.971Z,99926.75
2022-11-19T02:55:14.125Z,99867.94
2022-11-19T02:57:42.386Z,100020.66
2022-11-19T03:00:28.883Z,100020.63
2022-11-19T03:03:22.954Z,100019.78
2022-11-19T03:05:55.129Z,100005.72
2022-11-19T03:08:23.193Z,100015.38
2022-11-19T03:11:00.607Z,99999.56
2022-11-19T03:13:53.909Z,100019.78
2022-11-19T03:16:43.744Z,100037.31
2022-11-19T03:19:28.962Z,100031.19
2022-11-19T03:22:01.697Z,100039.03
2022-11-19T03:24:34.167Z,100040.75
2022-11-19T03:27:09.500Z,100035.50
2022-11-19T03:29:42.795Z,100045.19
2022-11-19T03:32:15.898Z,100045.19
2022-11-19T03:34:47.895Z,100043.44
2022-11-19T03:37:19.879Z,100045.13
2022-11-19T03:39:49.156Z,100053.06
2022-11-19T03:42:19.941Z,100030.19
2022-11-19T03:44:51.920Z,100052.13
2022-11-19T03:47:24.014Z,100054.75
2022-11-19T03:49:59.483Z,100044.19
2022-11-19T03:52:27.634Z,100046.88
2022-11-19T03:54:55.839Z,100049.41
2022-11-19T03:57:26.264Z,100038.97
2022-11-19T03:59:54.686Z,100063.56
2022-11-19T04:02:22.744Z,100060.00
2022-11-19T04:04:50.965Z,100053.94
2022-11-19T04:07:23.001Z,100052.19
2022-11-19T04:09:51.454Z,100052.22
2022-11-19T04:12:21.082Z,100065.38
2022-11-19T04:14:49.693Z,100016.13
2022-11-19T04:17:18.663Z,100067.91
2022-11-19T04:19:46.822Z,100062.63
2022-11-19T04:22:14.909Z,100056.50
2022-11-19T04:24:44.201Z,100052.03
2022-11-19T04:27:12.129Z,100068.69
2022-11-19T04:29:40.146Z,100069.53
2022-11-19T04:32:08.093Z,100073.91
2022-11-19T04:34:36.210Z,100076.53
2022-11-19T04:37:04.149Z,100061.56
2022-11-19T04:39:32.008Z,100031.69
2022-11-19T04:42:01.359Z,100081.81
2022-11-19T04:44:29.616Z,100086.19
2022-11-19T04:46:57.667Z,100049.28
2022-11-19T04:49:25.635Z,100080.06
2022-11-19T04:51:53.502Z,100080.97
2022-11-19T04:54:21.303Z,100065.06
2022-11-19T04:56:49.474Z,100093.22
2022-11-19T04:59:19.272Z,100093.19
2022-11-19T05:01:47.588Z,99989.53
2022-11-19T05:04:15.507Z,100019.34
2022-11-19T05:06:43.705Z,100057.03
2022-11-19T05:09:11.954Z,100091.28
2022-11-19T05:11:39.933Z,100052.47
2022-11-19T05:14:08.103Z,100104.44
2022-11-19T05:16:37.445Z,100095.69
2022-11-19T05:19:05.475Z,99995.50
2022-11-19T05:21:33.409Z,100051.75
2022-11-19T05:24:01.393Z,100113.31
2022-11-19T05:26:29.276Z,100108.00
2022-11-19T05:28:57.539Z,100104.28
2022-11-19T05:31:25.384Z,100055.03
2022-11-19T05:33:55.100Z,100111.25
2022-11-19T05:36:23.333Z,100052.38
2022-11-19T05:38:52.506Z,100114.91
2022-11-19T05:41:20.383Z,99999.72
2022-11-19T05:43:48.650Z,100119.16
2022-11-19T05:46:16.635Z,100119.19
2022-11-19T05:48:44.863Z,100123.56
2022-11-19T05:51:16.504Z,100127.97
2022-11-19T05:53:44.892Z,100131.38
2022-11-19T05:56:13.113Z,100132.41
2022-11-19T05:58:41.055Z,100002.88
2022-11-19T06:01:09.991Z,100109.38
2022-11-19T06:03:38.282Z,100138.53
2022-11-19T06:06:06.748Z,100144.53
2022-11-19T06:08:36.205Z,100138.31
2022-11-19T06:11:04.952Z,100074.97
2022-11-19T06:13:32.959Z,100143.72
2022-11-19T06:16:00.994Z,100145.47
2022-11-19T06:18:28.968Z,100090.22
2022-11-19T06:20:56.983Z,100140.28
2022-11-19T06:23:24.941Z,100117.22
2022-11-19T06:25:55.315Z,100129.28
2022-11-19T06:28:23.247Z,100149.59
2022-11-19T06:30:51.316Z,100145.34
2022-11-19T06:33:19.303Z,100147.91
2022-11-19T06:35:47.583Z,100150.53
2022-11-19T06:38:15.496Z,100143.34
2022-11-19T06:40:44.325Z,100142.34
2022-11-19T06:43:13.685Z,100055.22
2022-11-19T06:45:41.587Z,100137.94
2022-11-19T06:48:09.759Z,100141.38
2022-11-19T06:50:38.242Z,100155.56
2022-11-19T06:53:06.277Z,100155.31
2022-11-19T06:55:34.328Z,100169.41
2022-11-19T06:58:03.702Z,100165.78
2022-11-19T07:00:33.251Z,100170.88
2022-11-19T07:03:01.405Z,100181.66
2022-11-19T07:05:29.385Z,100188.69
2022-11-19T07:08:02.642Z,100197.41
2022-11-19T07:10:31.681Z,100200.94
2022-11-19T07:12:59.751Z,100203.47
2022-11-19T07:15:27.899Z,100212.09
2022-11-19T07:17:57.395Z,100207.78
2022-11-19T07:20:25.451Z,100213.25
2022-11-19T07:22:58.738Z,100218.50
2022-11-19T07:25:27.354Z,100214.25
2022-11-19T07:27:55.839Z,100202.81
2022-11-19T07:30:23.945Z,100156.19
2022-11-19T07:32:54.628Z,100227.38
2022-11-19T07:35:24.401Z,100230.84
2022-11-19T07:37:52.446Z,100230.13
2022-11-19T07:40:20.347Z,100236.41
2022-11-19T07:42:49.871Z,100240.06
2022-11-19T07:45:18.684Z,100210.09
2022-11-19T07:47:46.656Z,100241.81
2022-11-19T07:50:14.982Z,100241.00
2022-11-19T07:52:44.497Z,100253.91
2022-11-19T07:55:12.664Z,100245.41
2022-11-19T07:57:40.682Z,100232.09
2022-11-19T08:00:09.646Z,100193.22
2022-11-19T08:02:40.529Z,100172.44
2022-11-19T08:05:09.052Z,100239.75
2022-11-19T08:07:38.647Z,100257.47
2022-11-19T08:10:09.867Z,100255.13
2022-11-19T08:12:38.170Z,100217.41
2022-11-19T08:15:06.969Z,100133.09
2022-11-19T08:17:52.290Z,100255.63
2022-11-19T08:20:20.335Z,100256.03
2022-11-19T08:22:48.602Z,100258.75
2022-11-19T08:25:18.447Z,100242.84
2022-11-19T08:27:46.440Z,100165.47
2022-11-19T08:30:15.728Z,100258.81
2022-11-19T08:32:43.729Z,100092.47
2022-11-19T08:35:11.903Z,100222.09
2022-11-19T08:37:39.910Z,100256.50
2022-11-19T08:40:09.196Z,100166.66
2022-11-19T08:42:56.050Z,100224.94
2022-11-19T08:45:23.999Z,100247.91
2022-11-19T08:47:52.124Z,100205.72
2022-11-19T08:50:20.939Z,100232.03
2022-11-19T08:52:55.425Z,100124.66
2022-11-19T08:55:23.512Z,100231.03
2022-11-19T08:57:53.547Z,100257.16
2022-11-19T09:00:21.645Z,100263.25
2022-11-19T09:02:50.141Z,100239.66
2022-11-19T09:05:18.938Z,100260.72
2022-11-19T09:07:48.042Z,100263.31
2022-11-19T09:10:16.303Z,100247.28
2022-11-19T09:12:44.588Z,100270.25
2022-11-19T09:15:14.358Z,100265.72
2022-11-19T09:17:46.502Z,100267.69
2022-11-19T09:20:15.518Z,100260.00
2022-11-19T09:22:43.686Z,100268.84
2022-11-19T09:25:12.254Z,100266.38
2022-11-19T09:27:40.302Z,100247.97
2022-11-19T09:30:10.593Z,100264.53
2022-11-19T09:32:40.100Z,100267.88
2022-11-19T09:35:09.096Z,100265.47
2022-11-19T09:37:37.206Z,100256.81
2022-11-19T09:40:06.195Z,100255.09
2022-11-19T09:42:41.919Z,100153.75
2022-11-19T09:45:23.822Z,100238.97
2022-11-19T09:48:07.933Z,100250.44
2022-11-19T09:50:53.044Z,100158.81
2022-11-19T09:53:23.377Z,100267.19
2022-11-19T09:55:54.293Z,100268.13
2022-11-19T09:58:27.379Z,100199.47
2022-11-19T10:00:56.078Z,100271.59
2022-11-19T10:03:32.761Z,100229.53
2022-11-19T10:06:20.008Z,100234.88
2022-11-19T10:09:03.996Z,100260.44
2022-11-19T10:11:41.831Z,100256.09
2022-11-19T10:14:21.005Z,100131.25
2022-11-19T10:16:58.127Z,100257.81
2022-11-19T10:19:49.284Z,100260.47
2022-11-19T10:22:22.785Z,100242.91
2022-11-19T10:24:59.790Z,100247.19
2022-11-19T10:27:33.455Z,100257.84
2022-11-19T10:30:05.481Z,100192.81
2022-11-19T10:32:40.063Z,100187.38
2022-11-19T10:35:16.096Z,100251.72
2022-11-19T10:37:54.502Z,100211.28
2022-11-19T10:40:25.417Z,100239.38
2022-11-19T10:42:57.302Z,100241.16
2022-11-19T10:45:28.554Z,100190.13
2022-11-19T10:48:08.622Z,100243.78
2022-11-19T10:50:38.822Z,100178.72
2022-11-19T10:53:14.964Z,100239.34
2022-11-19T10:55:51.391Z,100184.84
2022-11-19T10:58:26.087Z,100238.50
2022-11-19T11:00:55.391Z,100105.75
2022-11-19T11:03:26.920Z,100174.38
2022-11-19T11:05:59.460Z,100172.63
2022-11-19T11:08:27.484Z,100235.88
2022-11-19T11:10:56.051Z,100208.66
2022-11-19T11:13:48.925Z,100192.78
2022-11-19T11:16:19.728Z,100197.22
2022-11-19T11:18:49.768Z,100213.03
2022-11-19T11:21:36.394Z,100209.53
2022-11-19T11:24:06.709Z,100159.41
2022-11-19T11:26:37.268Z,100213.91
2022-11-19T11:29:08.760Z,100170.84
2022-11-19T11:31:42.415Z,100111.09
2022-11-19T11:34:29.736Z,100183.09
2022-11-19T11:37:01.161Z,100093.50
2022-11-19T11:39:32.142Z,100190.13
2022-11-19T11:42:05.967Z,100175.22
2022-11-19T11:44:36.874Z,100191.81
2022-11-19T11:47:12.864Z,100188.34
2022-11-19T11:49:42.709Z,100062.75
2022-11-19T11:52:22.823Z,100123.34
2022-11-19T11:54:57.591Z,100175.97
2022-11-19T11:57:28.068Z,100185.63
2022-11-19T11:59:56.362Z,100131.25
2022-11-19T12:02:30.405Z,100179.50
2022-11-19T12:05:02.227Z,100179.50
2022-11-19T12:07:55.533Z,100182.22
2022-11-19T12:10:30.146Z,100122.41
2022-11-19T12:13:17.134Z,100161.94
2022-11-19T12:15:56.135Z,100176.78
2022-11-19T12:18:36.417Z,100173.22
2022-11-19T12:21:11.783Z,100167.94
2022-11-19T12:23:57.005Z,100180.22
2022-11-19T12:26:34.071Z,100146.88
2022-11-19T12:29:16.474Z,100186.50
2022-11-19T12:32:16.567Z,100181.16
2022-11-19T12:35:15.102Z,100182.06
2022-11-19T12:37:55.050Z,100160.09
2022-11-19T12:40:41.105Z,100181.97
2022-11-19T12:43:24.422Z,100182.88
2022-11-19T12:46:02.725Z,100174.97
2022-11-19T12:48:57.552Z,100186.34
2022-11-19T12:51:38.551Z,100170.50
2022-11-19T12:54:35.687Z,100178.41
2022-11-19T12:57:22.343Z,100169.59
2022-11-19T13:00:07.015Z,100132.72
2022-11-19T13:02:39.232Z,100176.63
2022-11-19T13:05:15.411Z,100179.47
2022-11-19T13:07:48.424Z,100173.28
2022-11-19T13:10:22.833Z,100169.69
2022-11-19T13:12:54.282Z,100051.19
2022-11-19T13:15:26.286Z,100163.47
2022-11-19T13:17:56.784Z,100165.19
2022-11-19T13:20:29.048Z,100059.84
2022-11-19T13:23:02.967Z,100161.59
2022-11-19T13:25:36.182Z,100153.69
2022-11-19T13:28:14.364Z,100174.91
2022-11-19T13:30:46.741Z,100167.81
2022-11-19T13:33:19.359Z,100137.13
2022-11-19T13:35:52.962Z,100166.09
2022-11-19T13:38:30.442Z,100171.34
2022-11-19T13:41:06.006Z,100169.59
2022-11-19T13:44:04.635Z,99882.84
2022-11-19T13:46:38.831Z,100162.75
2022-11-19T13:49:14.279Z,100166.28
2022-11-19T13:51:47.438Z,100097.78
2022-11-19T13:54:24.861Z,100128.50
2022-11-19T13:56:56.081Z,100030.19
2022-11-19T13:59:44.434Z,100150.47
2022-11-19T14:02:58.000Z,100153.09
2022-11-19T14:05:54.031Z,100149.59
2022-11-19T14:08:37.519Z,100140.81
2022-11-19T14:11:21.986Z,100152.25
2022-11-19T14:14:05.533Z,100142.53
2022-11-19T14:17:00.152Z,100053.84
2022-11-19T14:19:45.348Z,100140.72
2022-11-19T14:22:51.035Z,100152.22
2022-11-19T14:26:01.359Z,100146.06
2022-11-19T14:28:42.852Z,100141.63
2022-11-19T14:31:10.986Z,100146.91
2022-11-19T14:34:04.391Z,100029.31
2022-11-19T14:36:48.592Z,100143.41
2022-11-19T14:39:23.880Z,100139.03
2022-11-19T14:42:14.755Z,100102.22
2022-11-19T14:44:43.308Z,100096.09
2022-11-19T14:47:34.210Z,100156.75
2022-11-19T14:50:08.028Z,100158.53
2022-11-19T14:52:40.884Z,100159.41
2022-11-19T14:55:22.610Z,100159.41
2022-11-19T14:58:01.644Z,100149.72
2022-11-19T15:00:32.985Z,100156.75
2022-11-19T15:03:03.810Z,100158.53
2022-11-19T15:05:35.610Z,100148.88
2022-11-19T15:08:29.765Z,100152.38
2022-11-19T15:11:07.760Z,100130.44
2022-11-19T15:13:36.882Z,100137.44
2022-11-19T15:16:12.731Z,100130.44
2022-11-19T15:19:14.482Z,100152.41
2022-11-19T15:22:08.731Z,100155.03
2022-11-19T15:24:53.903Z,100156.81
2022-11-19T15:27:34.383Z,100149.75
2022-11-19T15:30:10.771Z,100144.47
2022-11-19T15:33:07.796Z,100129.56
2022-11-19T15:35:53.480Z,100142.72
2022-11-19T15:38:32.234Z,100115.47
2022-11-19T15:41:04.520Z,100134.81
2022-11-19T15:43:37.617Z,100139.19
2022-11-19T15:46:10.097Z,100136.53
2022-11-19T15:48:47.746Z,100129.53
2022-11-19T15:51:18.931Z,100126.88
2022-11-19T15:54:04.217Z,100047.78
2022-11-19T15:56:35.875Z,100117.19
2022-11-19T15:59:06.235Z,100116.28
2022-11-19T16:01:34.975Z,100013.47
2022-11-19T16:04:07.740Z,100025.75
2022-11-19T16:06:37.133Z,100116.22
2022-11-19T16:09:06.683Z,100119.72
2022-11-19T16:11:55.510Z,100074.06
2022-11-19T16:14:43.071Z,100105.66
2022-11-19T16:17:41.867Z,100102.94
2022-11-19T16:20:21.359Z,100131.13
2022-11-19T16:22:56.023Z,100128.47
2022-11-19T16:25:34.329Z,100134.59
2022-11-19T16:28:05.744Z,100135.47
2022-11-19T16:30:44.388Z,100085.31
2022-11-19T16:33:17.519Z,100137.16
2022-11-19T16:35:51.207Z,100121.34
2022-11-19T16:38:26.248Z,100065.88
2022-11-19T16:41:14.412Z,100134.44
2022-11-19T16:43:44.893Z,100130.03
2022-11-19T16:46:16.639Z,100145.00
2022-11-19T16:48:57.158Z,100142.34
2022-11-19T16:51:34.572Z,100144.91
2022-11-19T16:54:03.260Z,100144.91
2022-11-19T16:56:40.905Z,100141.38
2022-11-19T16:59:14.203Z,100148.34
2022-11-19T17:01:42.317Z,100126.34
2022-11-19T17:04:15.241Z,100142.19
2022-11-19T17:06:44.017Z,100121.94
2022-11-19T17:09:31.052Z,100148.38
2022-11-19T17:12:18.694Z,100144.88
2022-11-19T17:14:51.121Z,100138.69
2022-11-19T17:17:29.641Z,100143.13
2022-11-19T17:19:58.003Z,100142.16
2022-11-19T17:22:30.225Z,100089.38
2022-11-19T17:24:58.794Z,100132.53
2022-11-19T17:27:31.384Z,100131.66
2022-11-19T17:30:02.940Z,100077.97
2022-11-19T17:32:36.199Z,99991.00
2022-11-19T17:35:04.482Z,100133.38
2022-11-19T17:37:32.672Z,100135.13
2022-11-19T17:40:00.780Z,100138.69
2022-11-19T17:42:48.475Z,100135.13
2022-11-19T17:45:16.671Z,100142.09
2022-11-19T17:47:45.072Z,100080.53
2022-11-19T17:50:13.110Z,100119.19
2022-11-19T17:52:41.087Z,100146.38
2022-11-19T17:55:17.474Z,100093.53
2022-11-19T17:57:46.979Z,100154.16
2022-11-19T18:00:16.289Z,100103.00
2022-11-19T18:02:44.342Z,100154.06
2022-11-19T18:05:16.392Z,100154.06
2022-11-19T18:07:44.653Z,100161.03
2022-11-19T18:10:13.054Z,100154.91
2022-11-19T18:12:41.200Z,100153.09
2022-11-19T18:15:16.573Z,100148.63
2022-11-19T18:17:45.032Z,100157.41
2022-11-19T18:20:13.592Z,100159.16
2022-11-19T18:22:42.066Z,100159.19
2022-11-19T18:25:15.569Z,100165.41
2022-11-19T18:27:43.745Z,100173.31
2022-11-19T18:30:14.310Z,100166.22
2022-11-19T18:32:42.351Z,100171.53
2022-11-19T18:35:15.565Z,100145.22
2022-11-19T18:37:43.819Z,100159.28
2022-11-19T18:40:13.533Z,100157.56
2022-11-19T18:43:02.056Z,100160.19
2022-11-19T18:45:30.691Z,100157.53
2022-11-19T18:47:59.547Z,99910.16
2022-11-19T18:50:30.064Z,100158.16
2022-11-19T18:52:58.527Z,100043.69
2022-11-19T18:55:26.889Z,100142.25
2022-11-19T18:57:55.075Z,100153.59
2022-11-19T19:00:23.096Z,100148.34
2022-11-19T19:02:52.679Z,100005.81
2022-11-19T19:05:20.602Z,100159.81
2022-11-19T19:07:49.242Z,100157.09
2022-11-19T19:10:17.988Z,100003.97
2022-11-19T19:12:46.179Z,100068.16
2022-11-19T19:15:15.401Z,100081.28
2022-11-19T19:17:43.543Z,100164.94
2022-11-19T19:20:14.019Z,100165.81
2022-11-19T19:22:42.203Z,100166.13
2022-11-19T19:25:10.845Z,100161.59
2022-11-19T19:27:38.801Z,100169.53
2022-11-19T19:30:09.462Z,100183.56
2022-11-19T19:32:37.482Z,100166.09
2022-11-19T19:35:06.124Z,100130.94
2022-11-19T19:37:35.508Z,100163.47
2022-11-19T19:40:03.504Z,100166.91
2022-11-19T19:42:31.490Z,100164.34
2022-11-19T19:44:59.490Z,100163.28
2022-11-19T19:47:27.664Z,100116.59
2022-11-19T19:49:55.683Z,100114.81
2022-11-19T19:52:23.921Z,100118.25
2022-11-19T19:54:53.240Z,100167.28
2022-11-19T19:57:21.377Z,100163.78
2022-11-19T19:59:49.645Z,100173.41
2022-11-19T20:02:18.685Z,100169.88
2022-11-19T20:04:46.707Z,100168.91
2022-11-19T20:07:15.070Z,100163.59
2022-11-19T20:09:43.337Z,100167.94
2022-11-19T20:12:12.889Z,99954.91
2022-11-19T20:14:40.833Z,100167.75
2022-11-19T20:17:08.906Z,100168.66
2022-11-19T20:19:37.102Z,100150.22
2022-11-19T20:22:05.017Z,100011.97
2022-11-19T20:24:33.216Z,100171.41
2022-11-19T20:27:01.551Z,100169.66
2022-11-19T20:29:31.475Z,100165.28
2022-11-19T20:31:59.480Z,100161.72
2022-11-19T20:34:27.442Z,100163.41
2022-11-19T20:36:57.484Z,100149.03
2022-11-19T20:39:25.568Z,100155.06
2022-11-19T20:42:11.030Z,100156.91
2022-11-19T20:44:40.557Z,100087.31
2022-11-19T20:47:08.512Z,100156.97
2022-11-19T20:49:39.387Z,100154.16
2022-11-19T20:52:07.814Z,100148.06
2022-11-19T20:54:36.028Z,100146.44
2022-11-19T20:57:04.079Z,100150.84
2022-11-19T20:59:32.032Z,100036.41
2022-11-19T21:02:01.484Z,100150.03
2022-11-19T21:04:31.353Z,100115.59
2022-11-19T21:06:59.683Z,100048.00
2022-11-19T21:09:27.874Z,100159.84
2022-11-19T21:11:55.962Z,100155.53
2022-11-19T21:14:24.224Z,100155.53
2022-11-19T21:16:52.279Z,100154.78
2022-11-19T21:19:21.800Z,100133.69
2022-11-19T21:21:50.090Z,100151.31
2022-11-19T21:24:18.085Z,100149.41
2022-11-19T21:26:46.555Z,100107.97
2022-11-19T21:29:14.863Z,100060.28
2022-11-19T21:31:45.135Z,100143.94
2022-11-19T21:34:14.586Z,100026.88
2022-11-19T21:36:44.983Z,100092.00
2022-11-19T21:39:14.614Z,100139.47
2022-11-19T21:41:42.834Z,100133.19
2022-11-19T21:44:10.828Z,100086.22
2022-11-19T21:46:38.934Z,100123.22
2022-11-19T21:49:06.895Z,100140.00
2022-11-19T21:51:35.040Z,100129.41
2022-11-19T21:54:04.740Z,100133.81
2022-11-19T21:56:38.252Z,100138.31
2022-11-19T21:59:07.748Z,100134.81
2022-11-19T22:01:35.780Z,100132.03
2022-11-19T22:04:04.023Z,100143.38
2022-11-19T22:06:32.647Z,100100.63
2022-11-19T22:09:01.020Z,100135.91
2022-11-19T22:11:30.647Z,100127.94
2022-11-19T22:13:59.934Z,100134.91
2022-11-19T22:16:28.436Z,100127.94
2022-11-19T22:18:56.407Z,100115.47
2022-11-19T22:21:24.740Z,100133.16
2022-11-19T22:23:53.265Z,100129.50
2022-11-19T22:26:21.312Z,100124.09
2022-11-19T22:28:50.773Z,100135.38
2022-11-19T22:31:18.825Z,100131.75
2022-11-19T22:33:47.841Z,100025.00
2022-11-19T22:36:16.094Z,100129.91
2022-11-19T22:38:44.115Z,100134.91
2022-11-19T22:41:13.568Z,100130.50
2022-11-19T22:43:42.370Z,100110.09
2022-11-19T22:46:13.889Z,100126.00
2022-11-19T22:48:42.284Z,100101.50
2022-11-19T22:51:12.365Z,100133.19
2022-11-19T22:53:40.162Z,100139.44
2022-11-19T22:56:10.195Z,100130.53
2022-11-19T22:58:38.792Z,100142.09
2022-11-19T23:01:08.259Z,100135.84
2022-11-19T23:03:38.561Z,100071.47
2022-11-19T23:06:06.858Z,100135.97
2022-11-19T23:08:34.789Z,100121.94
2022-11-19T23:11:05.289Z,100128.88
2022-11-19T23:13:34.524Z,100133.19
2022-11-19T23:16:05.625Z,100038.13
2022-11-19T23:18:36.028Z,100114.72
2022-11-19T23:21:07.380Z,100122.75
2022-11-19T23:23:36.148Z,100114.13
2022-11-19T23:26:06.226Z,100114.81
2022-11-19T23:28:34.877Z,100107.97
2022-11-19T23:31:07.271Z,100093.56
2022-11-19T23:33:35.601Z,100105.91
2022-11-19T23:36:07.024Z,100102.41
2022-11-19T23:38:36.247Z,100075.03
2022-11-19T23:41:06.267Z,99810.94
2022-11-19T23:43:34.634Z,100105.78
2022-11-19T23:46:07.065Z,100101.38
2022-11-19T23:48:35.418Z,100098.78
2022-11-19T23:51:03.751Z,100086.53
2022-11-19T23:53:33.216Z,100093.44
2022-11-19T23:56:01.544Z,100096.00
2022-11-19T23:58:29.825Z,100099.56
